createdAt,value
2019-02-18T00:01:56.823Z,9.09
2019-02-18T00:05:02.612Z,9.19
2019-02-18T00:08:09.789Z,9.33
2019-02-18T00:11:15.574Z,9.36
2019-02-18T00:14:21.375Z,8.99
2019-02-18T00:17:27.158Z,9.46
2019-02-18T00:20:32.975Z,9.35
2019-02-18T00:23:38.790Z,9.41
2019-02-18T00:26:44.601Z,9.47
2019-02-18T00:29:50.360Z,9.45
2019-02-18T00:32:56.165Z,9.69
2019-02-18T00:36:01.920Z,9.18
2019-02-18T00:39:07.919Z,9.16
2019-02-18T00:42:13.797Z,9.22
2019-02-18T00:45:19.675Z,9.28
2019-02-18T00:48:25.462Z,9.59
2019-02-18T00:51:31.327Z,9.58
2019-02-18T00:54:37.107Z,9.80
2019-02-18T00:57:42.973Z,9.08
2019-02-18T01:00:48.745Z,8.65
2019-02-18T01:03:54.504Z,8.87
2019-02-18T01:07:00.313Z,8.82
2019-02-18T01:10:06.698Z,8.68
2019-02-18T01:13:12.548Z,9.09
2019-02-18T01:16:18.312Z,9.02
2019-02-18T01:19:24.281Z,8.78
2019-02-18T01:22:30.093Z,9.21
2019-02-18T01:25:35.903Z,9.37
2019-02-18T01:28:41.688Z,9.02
2019-02-18T01:31:47.563Z,8.92
2019-02-18T01:34:53.350Z,9.08
2019-02-18T01:37:59.125Z,9.11
2019-02-18T01:41:05.012Z,9.40
2019-02-18T01:44:10.776Z,9.26
2019-02-18T01:47:16.548Z,9.50
2019-02-18T01:50:22.824Z,9.56
2019-02-18T01:53:28.629Z,9.47
2019-02-18T01:56:34.401Z,9.45
2019-02-18T01:59:40.173Z,9.47
2019-02-18T02:02:45.938Z,9.41
2019-02-18T02:05:51.795Z,9.21
2019-02-18T02:08:57.700Z,9.40
2019-02-18T02:12:03.520Z,9.40
2019-02-18T02:15:12.592Z,9.51
2019-02-18T02:18:19.421Z,9.58
2019-02-18T02:21:25.183Z,9.39
2019-02-18T02:24:31.020Z,9.44
2019-02-18T02:27:36.792Z,9.50
2019-02-18T02:30:42.590Z,9.23
2019-02-18T02:33:49.450Z,9.30
2019-02-18T02:36:55.258Z,9.18
2019-02-18T02:40:01.042Z,9.35
2019-02-18T02:43:07.501Z,9.44
2019-02-18T02:46:13.263Z,9.36
2019-02-18T02:49:19.043Z,8.96
2019-02-18T02:52:24.828Z,9.24
2019-02-18T02:55:30.630Z,9.16
2019-02-18T02:58:36.426Z,9.18
2019-02-18T03:01:42.201Z,9.33
2019-02-18T03:04:47.983Z,9.17
2019-02-18T03:07:53.872Z,9.31
2019-02-18T03:10:59.636Z,8.65
2019-02-18T03:14:05.468Z,8.66
2019-02-18T03:17:11.246Z,8.92
2019-02-18T03:20:17.059Z,9.29
2019-02-18T03:23:22.936Z,9.10
2019-02-18T03:26:28.817Z,9.19
2019-02-18T03:30:13.963Z,9.20
2019-02-18T03:33:40.571Z,9.13
2019-02-18T03:36:46.446Z,9.14
2019-02-18T03:39:52.250Z,9.04
2019-02-18T03:42:58.046Z,8.94
2019-02-18T03:46:03.936Z,8.85
2019-02-18T03:49:09.716Z,8.78
2019-02-18T03:52:15.605Z,8.85
2019-02-18T03:55:21.396Z,8.81
2019-02-18T03:58:27.271Z,8.84
2019-02-18T04:01:33.268Z,9.02
2019-02-18T04:04:39.050Z,8.86
2019-02-18T04:07:44.828Z,8.68
2019-02-18T04:10:50.623Z,8.83
2019-02-18T04:13:56.442Z,8.99
2019-02-18T04:17:02.333Z,8.92
2019-02-18T04:20:08.342Z,8.82
2019-02-18T04:23:14.169Z,8.90
2019-02-18T04:26:20.164Z,8.99
2019-02-18T04:29:26.131Z,9.11
2019-02-18T04:32:31.943Z,9.18
2019-02-18T04:35:37.765Z,8.86
2019-02-18T04:38:53.856Z,8.95
2019-02-18T04:41:51.021Z,8.87
2019-02-18T04:44:56.846Z,8.72
2019-02-18T04:48:02.636Z,8.66
2019-02-18T04:51:08.419Z,8.54
2019-02-18T04:54:14.210Z,8.84
2019-02-18T04:57:20.008Z,8.76
2019-02-18T05:00:25.809Z,8.67
2019-02-18T05:03:32.197Z,8.97
2019-02-18T05:06:38.086Z,8.88
2019-02-18T05:09:43.867Z,9.00
2019-02-18T05:12:50.600Z,9.02
2019-02-18T05:15:57.995Z,9.07
2019-02-18T05:19:06.678Z,8.75
2019-02-18T05:22:12.448Z,8.88
2019-02-18T05:25:18.255Z,8.91
2019-02-18T05:28:24.055Z,8.74
2019-02-18T05:31:29.887Z,8.73
2019-02-18T05:34:36.730Z,8.84
2019-02-18T05:37:42.519Z,8.88
2019-02-18T05:40:48.289Z,8.76
2019-02-18T05:43:54.216Z,8.63
2019-02-18T05:46:59.990Z,8.91
2019-02-18T05:50:05.996Z,9.08
2019-02-18T05:53:11.777Z,9.27
2019-02-18T05:56:18.661Z,9.14
2019-02-18T05:59:24.454Z,9.21
2019-02-18T06:02:30.272Z,8.73
2019-02-18T06:05:36.073Z,9.01
2019-02-18T06:08:41.934Z,8.99
2019-02-18T06:11:47.690Z,9.33
2019-02-18T06:14:53.500Z,9.59
2019-02-18T06:17:59.277Z,9.65
2019-02-18T06:21:05.126Z,9.87
2019-02-18T06:24:10.982Z,10.11
2019-02-18T06:27:18.374Z,10.38
2019-02-18T06:30:24.150Z,10.64
2019-02-18T06:33:29.989Z,10.90
2019-02-18T06:36:35.774Z,11.25
2019-02-18T06:39:42.137Z,11.34
2019-02-18T06:42:48.031Z,11.58
2019-02-18T06:46:01.070Z,11.80
2019-02-18T06:49:12.677Z,11.93
2019-02-18T06:52:19.288Z,12.18
2019-02-18T06:55:25.169Z,12.04
2019-02-18T06:58:43.806Z,12.21
2019-02-18T07:02:00.415Z,12.27
2019-02-18T07:05:21.572Z,12.55
2019-02-18T07:08:46.799Z,12.83
2019-02-18T07:12:11.521Z,12.96
2019-02-18T07:15:17.426Z,12.90
2019-02-18T07:18:23.240Z,13.08
2019-02-18T07:21:29.025Z,13.14
2019-02-18T07:24:34.947Z,13.34
2019-02-18T07:27:40.704Z,13.46
2019-02-18T07:30:46.537Z,13.50
2019-02-18T07:33:52.366Z,13.71
2019-02-18T07:36:58.214Z,13.83
2019-02-18T07:40:04.113Z,13.96
2019-02-18T07:43:09.945Z,14.07
2019-02-18T07:46:15.723Z,14.51
2019-02-18T07:49:21.511Z,14.52
2019-02-18T07:52:27.334Z,14.93
2019-02-18T07:55:33.228Z,14.97
2019-02-18T07:58:39.018Z,14.91
2019-02-18T08:01:44.958Z,15.12
2019-02-18T08:04:50.715Z,15.34
2019-02-18T08:07:56.484Z,15.48
2019-02-18T08:11:02.245Z,15.49
2019-02-18T08:14:08.031Z,15.77
2019-02-18T08:17:13.861Z,16.17
2019-02-18T08:20:19.633Z,16.58
2019-02-18T08:23:25.381Z,16.76
2019-02-18T08:26:31.264Z,17.00
2019-02-18T08:29:37.025Z,16.86
2019-02-18T08:32:43.884Z,17.10
2019-02-18T08:35:49.742Z,17.34
2019-02-18T08:38:55.563Z,17.62
2019-02-18T08:42:01.425Z,17.81
2019-02-18T08:45:08.997Z,17.97
2019-02-18T08:48:14.810Z,18.15
2019-02-18T08:51:20.616Z,18.49
2019-02-18T08:54:26.402Z,18.65
2019-02-18T08:57:32.296Z,19.01
2019-02-18T09:00:38.211Z,18.73
2019-02-18T09:03:44.032Z,18.79
2019-02-18T09:06:49.870Z,18.42
2019-02-18T09:09:55.649Z,18.89
2019-02-18T09:13:01.483Z,19.20
2019-02-18T09:16:07.467Z,19.25
2019-02-18T09:19:13.273Z,19.51
2019-02-18T09:22:51.314Z,19.20
2019-02-18T09:25:59.747Z,19.29
2019-02-18T09:29:05.534Z,18.97
2019-02-18T09:32:11.302Z,19.10
2019-02-18T09:35:17.189Z,19.69
2019-02-18T09:38:25.303Z,19.68
2019-02-18T09:41:30.764Z,19.80
2019-02-18T09:44:36.916Z,19.80
2019-02-18T09:47:42.784Z,20.15
2019-02-18T09:50:48.790Z,20.48
2019-02-18T09:53:54.576Z,20.73
2019-02-18T09:57:00.505Z,20.73
2019-02-18T10:00:07.369Z,20.60
2019-02-18T10:03:13.301Z,20.33
2019-02-18T10:06:20.112Z,20.82
2019-02-18T10:09:25.929Z,20.95
2019-02-18T10:12:31.907Z,20.99
2019-02-18T10:15:37.813Z,20.85
2019-02-18T10:18:43.759Z,21.01
2019-02-18T10:21:49.565Z,20.85
2019-02-18T10:24:55.424Z,21.06
2019-02-18T10:28:02.000Z,20.78
2019-02-18T10:31:07.805Z,21.17
2019-02-18T10:34:13.641Z,21.32
2019-02-18T10:37:19.531Z,21.17
2019-02-18T10:40:25.346Z,21.82
2019-02-18T10:43:32.682Z,22.00
2019-02-18T10:46:40.686Z,22.25
2019-02-18T10:49:46.624Z,22.00
2019-02-18T10:52:52.469Z,21.78
2019-02-18T10:55:58.611Z,22.35
2019-02-18T10:59:04.508Z,22.32
2019-02-18T11:02:10.393Z,22.24
2019-02-18T11:05:16.306Z,22.48
2019-02-18T11:08:22.126Z,21.81
2019-02-18T11:11:27.894Z,22.17
2019-02-18T11:14:33.873Z,22.00
2019-02-18T11:17:39.633Z,22.07
2019-02-18T11:20:45.567Z,20.98
2019-02-18T11:23:51.337Z,21.80
2019-02-18T11:26:57.154Z,21.95
2019-02-18T11:30:03.057Z,21.92
2019-02-18T11:33:09.858Z,22.64
2019-02-18T11:36:15.718Z,22.65
2019-02-18T11:39:21.622Z,22.72
2019-02-18T11:42:27.500Z,22.80
2019-02-18T11:45:34.887Z,22.81
2019-02-18T11:48:41.049Z,22.42
2019-02-18T11:51:46.843Z,22.83
2019-02-18T11:54:53.022Z,23.11
2019-02-18T11:57:58.833Z,23.03
2019-02-18T12:01:04.805Z,22.84
2019-02-18T12:04:10.688Z,22.59
2019-02-18T12:07:16.462Z,22.41
2019-02-18T12:10:22.279Z,23.01
2019-02-18T12:13:28.063Z,23.11
2019-02-18T12:16:33.985Z,23.25
2019-02-18T12:19:39.797Z,23.07
2019-02-18T12:22:45.615Z,22.56
2019-02-18T12:25:51.513Z,21.93
2019-02-18T12:28:57.380Z,21.15
2019-02-18T12:32:03.157Z,21.68
2019-02-18T12:35:09.181Z,21.89
2019-02-18T12:38:17.336Z,22.22
2019-02-18T12:41:22.452Z,22.31
2019-02-18T12:44:28.249Z,22.02
2019-02-18T12:47:34.167Z,21.74
2019-02-18T12:50:39.988Z,22.09
2019-02-18T12:53:46.471Z,22.06
2019-02-18T12:56:52.534Z,22.25
2019-02-18T12:59:58.698Z,21.71
2019-02-18T13:03:05.177Z,21.53
2019-02-18T13:06:11.075Z,21.57
2019-02-18T13:09:16.879Z,21.35
2019-02-18T13:12:22.795Z,21.40
2019-02-18T13:15:28.567Z,21.38
2019-02-18T13:18:34.438Z,20.85
2019-02-18T13:21:40.231Z,20.65
2019-02-18T13:24:46.094Z,20.95
2019-02-18T13:27:51.876Z,21.19
2019-02-18T13:30:57.645Z,21.31
2019-02-18T13:34:05.270Z,20.97
2019-02-18T13:37:13.175Z,20.90
2019-02-18T13:40:18.929Z,20.73
2019-02-18T13:43:30.092Z,21.07
2019-02-18T13:46:35.955Z,20.90
2019-02-18T13:49:42.138Z,21.31
2019-02-18T13:52:48.150Z,21.23
2019-02-18T13:55:54.020Z,20.69
2019-02-18T13:58:59.892Z,20.90
2019-02-18T14:02:06.075Z,20.92
2019-02-18T14:05:12.337Z,20.74
2019-02-18T14:08:18.188Z,20.76
2019-02-18T14:11:24.060Z,20.73
2019-02-18T14:14:29.812Z,20.58
2019-02-18T14:17:35.561Z,20.84
2019-02-18T14:20:41.509Z,20.67
2019-02-18T14:23:47.307Z,20.43
2019-02-18T14:26:53.108Z,20.23
2019-02-18T14:29:58.883Z,20.26
2019-02-18T14:33:04.763Z,20.28
2019-02-18T14:36:10.987Z,19.99
2019-02-18T14:39:24.190Z,20.08
2019-02-18T14:42:34.948Z,19.92
2019-02-18T14:45:40.584Z,19.87
2019-02-18T14:48:46.855Z,19.72
2019-02-18T14:51:53.156Z,19.37
2019-02-18T14:54:59.356Z,19.37
2019-02-18T14:58:05.874Z,19.33
2019-02-18T15:01:12.225Z,19.18
2019-02-18T15:04:18.101Z,18.96
2019-02-18T15:07:24.043Z,18.75
2019-02-18T15:10:29.879Z,18.85
2019-02-18T15:13:35.765Z,18.77
2019-02-18T15:16:41.597Z,18.80
2019-02-18T15:19:47.654Z,18.75
2019-02-18T15:22:53.456Z,18.69
2019-02-18T15:25:59.223Z,18.33
2019-02-18T15:29:05.110Z,18.25
2019-02-18T15:32:11.009Z,18.10
2019-02-18T15:35:16.985Z,17.87
2019-02-18T15:38:22.895Z,17.87
2019-02-18T15:41:28.878Z,17.76
2019-02-18T15:44:34.692Z,17.71
2019-02-18T15:47:40.561Z,17.58
2019-02-18T15:50:46.845Z,17.23
2019-02-18T15:53:52.880Z,17.23
2019-02-18T15:56:58.786Z,17.25
2019-02-18T16:00:05.004Z,17.12
2019-02-18T16:03:12.445Z,17.14
2019-02-18T16:06:18.442Z,17.08
2019-02-18T16:09:24.217Z,17.01
2019-02-18T16:12:30.106Z,17.10
2019-02-18T16:15:35.884Z,16.98
2019-02-18T16:18:41.790Z,16.93
2019-02-18T16:21:47.994Z,16.77
2019-02-18T16:24:53.802Z,16.74
2019-02-18T16:27:59.615Z,16.62
2019-02-18T16:31:05.523Z,16.64
2019-02-18T16:34:11.333Z,16.69
2019-02-18T16:37:17.169Z,16.69
2019-02-18T16:40:23.975Z,16.69
2019-02-18T16:43:29.760Z,16.72
2019-02-18T16:46:35.576Z,16.70
2019-02-18T16:49:41.713Z,16.68
2019-02-18T16:52:48.080Z,16.62
2019-02-18T16:55:53.944Z,16.58
2019-02-18T16:58:59.730Z,16.42
2019-02-18T17:02:05.764Z,16.38
2019-02-18T17:05:11.637Z,16.35
2019-02-18T17:08:17.463Z,16.26
2019-02-18T17:11:23.319Z,16.17
2019-02-18T17:14:29.145Z,16.16
2019-02-18T17:17:34.963Z,16.19
2019-02-18T17:20:40.754Z,16.17
2019-02-18T17:23:46.780Z,16.12
2019-02-18T17:26:52.645Z,16.15
2019-02-18T17:29:58.398Z,15.97
2019-02-18T17:33:06.862Z,16.02
2019-02-18T17:36:12.622Z,15.73
2019-02-18T17:39:19.507Z,15.35
2019-02-18T17:42:25.302Z,15.57
2019-02-18T17:45:31.265Z,15.56
2019-02-18T17:48:37.157Z,15.69
2019-02-18T17:51:43.131Z,15.44
2019-02-18T17:54:49.411Z,15.52
2019-02-18T17:57:55.188Z,15.64
2019-02-18T18:01:01.179Z,15.57
2019-02-18T18:04:08.079Z,15.69
2019-02-18T18:07:14.069Z,15.64
2019-02-18T18:10:20.025Z,15.38
2019-02-18T18:13:26.737Z,15.42
2019-02-18T18:16:32.614Z,15.28
2019-02-18T18:19:38.405Z,15.12
2019-02-18T18:22:44.386Z,15.19
2019-02-18T18:25:50.549Z,15.05
2019-02-18T18:28:56.442Z,14.93
2019-02-18T18:32:02.430Z,14.90
2019-02-18T18:35:10.389Z,14.62
2019-02-18T18:38:16.183Z,14.72
2019-02-18T18:41:21.997Z,14.56
2019-02-18T18:44:27.813Z,14.49
2019-02-18T18:47:33.673Z,14.33
2019-02-18T18:50:39.481Z,14.09
2019-02-18T18:53:45.261Z,14.25
2019-02-18T18:56:51.152Z,14.25
2019-02-18T18:59:58.006Z,14.20
2019-02-18T19:03:03.825Z,14.38
2019-02-18T19:06:09.705Z,14.43
2019-02-18T19:09:15.504Z,14.50
2019-02-18T19:12:21.304Z,14.55
2019-02-18T19:15:28.654Z,14.55
2019-02-18T19:18:34.643Z,14.61
2019-02-18T19:21:40.575Z,14.62
2019-02-18T19:24:46.739Z,14.63
2019-02-18T19:27:52.784Z,14.53
2019-02-18T19:30:58.593Z,14.54
2019-02-18T19:34:04.433Z,14.46
2019-02-18T19:37:10.257Z,14.39
2019-02-18T19:40:16.592Z,14.44
2019-02-18T19:43:22.681Z,14.46
2019-02-18T19:46:28.491Z,14.33
2019-02-18T19:49:34.301Z,14.19
2019-02-18T19:52:40.116Z,14.09
2019-02-18T19:55:46.047Z,14.14
2019-02-18T19:58:51.815Z,14.02
2019-02-18T20:01:57.678Z,14.08
2019-02-18T20:05:03.579Z,14.04
2019-02-18T20:08:09.399Z,14.10
2019-02-18T20:11:15.396Z,14.02
2019-02-18T20:14:21.232Z,14.07
2019-02-18T20:17:27.114Z,14.07
2019-02-18T20:20:32.969Z,14.11
2019-02-18T20:23:38.776Z,14.17
2019-02-18T20:26:44.639Z,13.83
2019-02-18T20:29:51.541Z,13.86
2019-02-18T20:32:57.633Z,13.86
2019-02-18T20:36:03.450Z,13.79
2019-02-18T20:39:09.956Z,13.80
2019-02-18T20:42:17.056Z,13.78
2019-02-18T20:45:22.960Z,13.75
2019-02-18T20:48:30.230Z,13.61
2019-02-18T20:51:36.108Z,13.58
2019-02-18T20:54:41.932Z,13.55
2019-02-18T20:57:50.761Z,13.42
2019-02-18T21:00:56.807Z,13.45
2019-02-18T21:04:02.833Z,13.25
2019-02-18T21:07:08.903Z,13.15
2019-02-18T21:10:15.198Z,13.34
2019-02-18T21:13:21.132Z,13.41
2019-02-18T21:16:26.930Z,13.37
2019-02-18T21:19:32.754Z,13.27
2019-02-18T21:22:38.520Z,13.22
2019-02-18T21:25:44.908Z,12.90
2019-02-18T21:28:50.688Z,12.83
2019-02-18T21:31:56.470Z,12.76
2019-02-18T21:35:02.298Z,12.78
2019-02-18T21:38:08.061Z,12.80
2019-02-18T21:41:13.836Z,12.80
2019-02-18T21:44:25.157Z,12.82
2019-02-18T21:47:28.181Z,12.82
2019-02-18T21:50:33.960Z,12.55
2019-02-18T21:53:39.737Z,12.61
2019-02-18T21:56:45.545Z,12.64
2019-02-18T21:59:51.443Z,12.44
2019-02-18T22:02:57.213Z,12.42
2019-02-18T22:06:03.082Z,12.41
2019-02-18T22:09:09.045Z,12.44
2019-02-18T22:12:15.481Z,12.41
2019-02-18T22:15:21.299Z,12.38
2019-02-18T22:18:27.100Z,12.43
2019-02-18T22:21:32.907Z,12.22
2019-02-18T22:24:38.700Z,12.27
2019-02-18T22:27:46.352Z,12.17
2019-02-18T22:30:52.140Z,11.76
2019-02-18T22:33:57.930Z,12.14
2019-02-18T22:37:04.177Z,12.27
2019-02-18T22:40:10.090Z,11.79
2019-02-18T22:43:15.885Z,11.65
2019-02-18T22:46:21.753Z,11.51
2019-02-18T22:49:27.530Z,10.79
2019-02-18T22:52:33.363Z,10.70
2019-02-18T22:55:39.208Z,10.91
2019-02-18T22:58:44.986Z,11.12
2019-02-18T23:01:50.866Z,11.05
2019-02-18T23:04:56.646Z,11.08
2019-02-18T23:08:02.549Z,11.14
2019-02-18T23:11:08.422Z,11.30
2019-02-18T23:14:14.200Z,11.34
2019-02-18T23:17:20.030Z,11.51
2019-02-18T23:20:25.788Z,11.64
2019-02-18T23:23:31.570Z,11.64
2019-02-18T23:26:37.805Z,11.14
2019-02-18T23:29:43.572Z,11.09
2019-02-18T23:32:49.339Z,11.13
2019-02-18T23:35:55.115Z,11.00
2019-02-18T23:39:00.930Z,11.00
2019-02-18T23:42:08.363Z,11.01
2019-02-18T23:45:14.253Z,10.94
2019-02-18T23:48:20.065Z,10.92
2019-02-18T23:51:26.955Z,10.72
2019-02-18T23:54:33.719Z,10.95
2019-02-18T23:57:39.491Z,10.93
